createdAt,value
2023-05-18T00:00:16.552Z,16.47
2023-05-18T00:02:43.697Z,16.43
2023-05-18T00:05:10.474Z,16.40
2023-05-18T00:07:37.603Z,16.37
2023-05-18T00:10:04.473Z,16.34
2023-05-18T00:12:31.144Z,16.33
2023-05-18T00:14:57.919Z,16.31
2023-05-18T00:17:24.946Z,16.28
2023-05-18T00:19:51.903Z,16.26
2023-05-18T00:22:19.021Z,16.23
2023-05-18T00:24:46.470Z,16.20
2023-05-18T00:27:13.077Z,16.18
2023-05-18T00:29:39.749Z,16.17
2023-05-18T00:32:06.573Z,16.17
2023-05-18T00:34:33.287Z,16.17
2023-05-18T00:36:59.932Z,16.16
2023-05-18T00:39:26.648Z,16.17
2023-05-18T00:41:53.305Z,16.19
2023-05-18T00:44:20.061Z,16.19
2023-05-18T00:46:46.777Z,16.17
2023-05-18T00:49:13.473Z,16.16
2023-05-18T00:51:40.181Z,16.14
2023-05-18T00:54:08.382Z,16.13
2023-05-18T00:56:35.270Z,16.11
2023-05-18T00:59:02.281Z,16.12
2023-05-18T01:01:29.607Z,16.11
2023-05-18T01:03:57.656Z,16.13
2023-05-18T01:06:27.380Z,16.14
2023-05-18T01:08:54.156Z,16.15
2023-05-18T01:11:29.521Z,16.15
2023-05-18T01:14:03.379Z,16.17
2023-05-18T01:16:34.575Z,16.19
2023-05-18T01:19:05.639Z,16.19
2023-05-18T01:21:46.338Z,16.19
2023-05-18T01:24:16.255Z,16.14
2023-05-18T01:26:45.325Z,16.08
2023-05-18T01:29:13.107Z,16.01
2023-05-18T01:31:40.163Z,15.91
2023-05-18T01:34:06.829Z,15.81
2023-05-18T01:36:33.547Z,15.73
2023-05-18T01:39:01.850Z,15.71
2023-05-18T01:41:29.683Z,15.70
2023-05-18T01:43:56.420Z,15.71
2023-05-18T01:46:36.750Z,15.72
2023-05-18T01:49:32.909Z,15.73
2023-05-18T01:52:04.601Z,15.73
2023-05-18T01:54:31.789Z,15.74
2023-05-18T01:56:58.522Z,15.76
2023-05-18T01:59:25.809Z,15.77
2023-05-18T02:01:59.331Z,15.78
2023-05-18T02:04:27.076Z,15.79
2023-05-18T02:06:54.315Z,15.81
2023-05-18T02:09:21.770Z,15.83
2023-05-18T02:11:49.319Z,15.83
2023-05-18T02:14:16.432Z,15.83
2023-05-18T02:16:47.568Z,15.81
2023-05-18T02:19:14.962Z,15.80
2023-05-18T02:21:43.602Z,15.77
2023-05-18T02:24:10.704Z,15.76
2023-05-18T02:26:37.754Z,15.74
2023-05-18T02:29:06.425Z,15.75
2023-05-18T02:31:33.209Z,15.75
2023-05-18T02:34:01.533Z,15.74
2023-05-18T02:36:28.289Z,15.72
2023-05-18T02:38:55.057Z,15.67
2023-05-18T02:41:22.853Z,15.61
2023-05-18T02:43:49.582Z,15.55
2023-05-18T02:46:16.545Z,15.50
2023-05-18T02:48:45.770Z,15.45
2023-05-18T02:51:12.574Z,15.41
2023-05-18T02:53:39.555Z,15.36
2023-05-18T02:56:08.999Z,15.36
2023-05-18T02:58:44.010Z,15.36
2023-05-18T03:01:27.105Z,15.36
2023-05-18T03:03:54.402Z,15.36
2023-05-18T03:06:26.696Z,15.35
2023-05-18T03:08:57.078Z,15.33
2023-05-18T03:11:29.662Z,15.31
2023-05-18T03:13:56.956Z,15.30
2023-05-18T03:16:28.366Z,15.29
2023-05-18T03:18:58.854Z,15.27
2023-05-18T03:21:33.515Z,15.25
2023-05-18T03:24:00.461Z,15.25
2023-05-18T03:26:30.882Z,15.28
2023-05-18T03:28:57.958Z,15.31
2023-05-18T03:31:25.000Z,15.36
2023-05-18T03:33:52.093Z,15.41
2023-05-18T03:36:18.753Z,15.47
2023-05-18T03:38:46.329Z,15.56
2023-05-18T03:41:13.207Z,15.66
2023-05-18T03:43:39.869Z,15.74
2023-05-18T03:46:06.879Z,15.83
2023-05-18T03:48:33.689Z,15.92
2023-05-18T03:51:00.736Z,16.00
2023-05-18T03:53:29.606Z,16.09
2023-05-18T03:55:56.938Z,16.16
2023-05-18T03:58:23.656Z,16.25
2023-05-18T04:00:50.363Z,16.33
2023-05-18T04:03:17.263Z,16.44
2023-05-18T04:05:44.391Z,16.55
2023-05-18T04:08:14.565Z,16.63
2023-05-18T04:10:42.211Z,16.74
2023-05-18T04:13:08.954Z,16.83
2023-05-18T04:15:36.541Z,16.91
2023-05-18T04:18:03.369Z,16.96
2023-05-18T04:20:30.142Z,17.00
2023-05-18T04:22:57.545Z,17.06
2023-05-18T04:25:28.431Z,17.12
2023-05-18T04:27:55.806Z,17.17
2023-05-18T04:30:23.661Z,17.21
2023-05-18T04:32:51.109Z,17.25
2023-05-18T04:35:18.668Z,17.27
2023-05-18T04:37:45.468Z,17.29
2023-05-18T04:40:18.520Z,17.33
2023-05-18T04:42:48.185Z,17.36
2023-05-18T04:45:19.226Z,17.39
2023-05-18T04:47:46.812Z,17.42
2023-05-18T04:50:14.915Z,17.44
2023-05-18T04:52:47.939Z,17.49
2023-05-18T04:55:26.374Z,17.55
2023-05-18T04:57:56.944Z,17.61
2023-05-18T05:00:24.865Z,17.69
2023-05-18T05:02:51.707Z,17.75
2023-05-18T05:05:19.042Z,17.84
2023-05-18T05:07:45.730Z,17.93
2023-05-18T05:10:12.447Z,18.04
2023-05-18T05:12:39.350Z,18.12
2023-05-18T05:15:06.335Z,18.21
2023-05-18T05:17:33.058Z,18.28
2023-05-18T05:20:00.027Z,18.31
2023-05-18T05:22:26.856Z,18.33
2023-05-18T05:24:53.682Z,18.36
2023-05-18T05:27:20.682Z,18.40
2023-05-18T05:29:47.385Z,18.44
2023-05-18T05:32:14.108Z,18.47
2023-05-18T05:34:45.492Z,18.52
2023-05-18T05:37:12.687Z,18.52
2023-05-18T05:39:39.572Z,18.51
2023-05-18T05:42:06.451Z,18.49
2023-05-18T05:44:33.181Z,18.48
2023-05-18T05:46:59.934Z,18.49
2023-05-18T05:49:26.953Z,18.49
2023-05-18T05:51:53.773Z,18.48
2023-05-18T05:54:20.535Z,18.51
2023-05-18T05:56:47.327Z,18.56
2023-05-18T05:59:15.690Z,18.62
2023-05-18T06:01:42.617Z,18.65
2023-05-18T06:04:12.441Z,18.71
2023-05-18T06:06:39.329Z,18.76
2023-05-18T06:09:07.036Z,18.83
2023-05-18T06:11:33.706Z,18.88
2023-05-18T06:14:00.492Z,18.91
2023-05-18T06:16:27.261Z,18.94
2023-05-18T06:18:54.203Z,18.97
2023-05-18T06:21:20.904Z,18.99
2023-05-18T06:23:48.654Z,19.04
2023-05-18T06:26:34.200Z,19.12
2023-05-18T06:29:21.510Z,19.18
2023-05-18T06:32:08.494Z,19.17
2023-05-18T06:34:38.407Z,19.20
2023-05-18T06:37:05.457Z,19.24
2023-05-18T06:39:32.256Z,19.25
2023-05-18T06:41:59.040Z,19.25
2023-05-18T06:44:31.556Z,19.28
2023-05-18T06:47:24.351Z,19.31
2023-05-18T06:49:51.306Z,19.30
2023-05-18T06:52:18.108Z,19.29
2023-05-18T06:54:45.307Z,19.31
2023-05-18T06:57:12.361Z,19.36
2023-05-18T06:59:39.027Z,19.43
2023-05-18T07:02:06.600Z,19.50
2023-05-18T07:04:33.280Z,19.57
2023-05-18T07:06:59.994Z,19.68
2023-05-18T07:09:26.669Z,19.81
2023-05-18T07:11:53.636Z,19.92
2023-05-18T07:14:20.388Z,20.03
2023-05-18T07:16:47.516Z,20.13
2023-05-18T07:19:15.049Z,20.21
2023-05-18T07:21:42.272Z,20.26
2023-05-18T07:24:08.987Z,20.29
2023-05-18T07:26:35.702Z,20.35
2023-05-18T07:29:02.341Z,20.44
2023-05-18T07:31:29.051Z,20.55
2023-05-18T07:33:55.782Z,20.60
2023-05-18T07:36:22.933Z,20.63
2023-05-18T07:38:54.898Z,20.67
2023-05-18T07:41:22.923Z,20.74
2023-05-18T07:43:50.654Z,20.78
2023-05-18T07:46:17.583Z,20.88
2023-05-18T07:48:45.246Z,20.97
2023-05-18T07:51:12.330Z,21.10
2023-05-18T07:53:39.573Z,21.30
2023-05-18T07:56:07.080Z,21.53
2023-05-18T07:58:34.309Z,21.77
2023-05-18T08:01:01.193Z,22.01
2023-05-18T08:03:28.076Z,22.22
2023-05-18T08:05:54.760Z,22.45
2023-05-18T08:08:21.886Z,22.66
2023-05-18T08:10:48.553Z,22.75
2023-05-18T08:13:15.171Z,22.78
2023-05-18T08:15:41.984Z,22.82
2023-05-18T08:18:08.682Z,22.94
2023-05-18T08:20:35.482Z,23.13
2023-05-18T08:23:02.194Z,23.31
2023-05-18T08:25:29.008Z,23.46
2023-05-18T08:27:55.934Z,23.63
2023-05-18T08:30:22.791Z,23.69
2023-05-18T08:32:49.650Z,23.57
2023-05-18T08:35:16.484Z,23.48
2023-05-18T08:37:43.194Z,23.44
2023-05-18T08:40:12.877Z,23.39
2023-05-18T08:42:49.374Z,23.28
2023-05-18T08:45:19.965Z,23.15
2023-05-18T08:47:46.782Z,23.06
2023-05-18T08:50:15.958Z,23.08
2023-05-18T08:52:43.042Z,23.02
2023-05-18T08:55:11.957Z,22.88
2023-05-18T08:57:39.287Z,22.77
2023-05-18T09:00:06.293Z,22.68
2023-05-18T09:02:32.952Z,22.77
2023-05-18T09:04:59.589Z,22.92
2023-05-18T09:07:27.644Z,23.07
2023-05-18T09:09:54.816Z,23.24
2023-05-18T09:12:24.329Z,23.39
2023-05-18T09:14:51.581Z,23.56
2023-05-18T09:17:18.717Z,23.80
2023-05-18T09:19:45.494Z,24.00
2023-05-18T09:22:12.215Z,24.14
2023-05-18T09:24:38.934Z,24.30
2023-05-18T09:27:06.461Z,24.46
2023-05-18T09:29:33.826Z,24.56
2023-05-18T09:32:06.953Z,24.62
2023-05-18T09:34:41.079Z,24.63
2023-05-18T09:37:07.996Z,24.70
2023-05-18T09:39:34.609Z,24.78
2023-05-18T09:42:02.769Z,24.84
2023-05-18T09:44:33.831Z,24.81
2023-05-18T09:47:00.689Z,24.66
2023-05-18T09:49:29.065Z,24.46
2023-05-18T09:51:56.740Z,24.27
2023-05-18T09:54:24.505Z,24.07
2023-05-18T09:57:02.428Z,23.91
2023-05-18T09:59:36.680Z,23.82
2023-05-18T10:02:06.040Z,23.80
2023-05-18T10:04:39.831Z,23.73
2023-05-18T10:07:11.173Z,23.71
2023-05-18T10:09:38.075Z,23.67
2023-05-18T10:12:10.126Z,23.58
2023-05-18T10:14:36.882Z,23.51
2023-05-18T10:17:15.095Z,23.47
2023-05-18T10:19:43.279Z,23.49
2023-05-18T10:22:10.075Z,23.53
2023-05-18T10:24:40.084Z,23.52
2023-05-18T10:27:07.852Z,23.52
2023-05-18T10:29:34.763Z,23.49
2023-05-18T10:32:06.005Z,23.47
2023-05-18T10:34:54.216Z,23.48
2023-05-18T10:40:43.313Z,23.52
2023-05-18T10:43:10.045Z,23.56
2023-05-18T10:45:37.212Z,23.62
2023-05-18T10:48:05.151Z,23.68
2023-05-18T10:50:32.221Z,23.72
2023-05-18T10:52:59.496Z,23.82
2023-05-18T10:55:27.818Z,23.96
2023-05-18T10:58:01.701Z,24.11
2023-05-18T11:00:28.524Z,24.20
2023-05-18T11:02:55.525Z,24.26
2023-05-18T11:08:09.688Z,24.23
2023-05-18T11:10:43.764Z,24.16
2023-05-18T11:13:13.418Z,24.10
2023-05-18T11:16:02.211Z,23.99
2023-05-18T11:18:36.668Z,23.95
2023-05-18T11:21:03.522Z,23.91
2023-05-18T11:23:31.781Z,23.88
2023-05-18T11:26:04.916Z,23.84
2023-05-18T11:28:33.665Z,23.82
2023-05-18T11:31:00.397Z,23.81
2023-05-18T11:33:28.174Z,23.82
2023-05-18T11:36:01.971Z,23.83
2023-05-18T11:38:48.636Z,23.86
2023-05-18T11:41:31.263Z,23.85
2023-05-18T11:44:18.903Z,23.78
2023-05-18T11:47:04.302Z,23.74
2023-05-18T11:49:47.532Z,23.77
2023-05-18T11:52:21.215Z,23.74
2023-05-18T11:54:57.983Z,23.69
2023-05-18T11:57:24.691Z,23.59
2023-05-18T11:59:55.349Z,23.56
2023-05-18T12:02:22.753Z,23.54
2023-05-18T12:04:51.190Z,23.49
2023-05-18T12:07:18.958Z,23.48
2023-05-18T12:09:47.162Z,23.46
2023-05-18T12:12:17.154Z,23.42
2023-05-18T12:14:45.386Z,23.40
2023-05-18T12:17:12.299Z,23.34
2023-05-18T12:19:41.915Z,23.20
2023-05-18T12:22:09.308Z,23.07
2023-05-18T12:24:36.734Z,22.95
2023-05-18T12:27:07.339Z,22.72
2023-05-18T12:29:34.934Z,22.50
2023-05-18T12:32:05.111Z,22.29
2023-05-18T12:34:32.036Z,22.13
2023-05-18T12:36:58.985Z,22.02
2023-05-18T12:39:28.479Z,21.92
2023-05-18T12:42:08.051Z,21.83
2023-05-18T12:44:34.786Z,21.72
2023-05-18T12:47:01.789Z,21.65
2023-05-18T12:49:28.491Z,21.62
2023-05-18T12:51:55.507Z,21.61
2023-05-18T12:54:29.494Z,21.61
2023-05-18T12:57:02.036Z,21.52
2023-05-18T12:59:29.303Z,21.45
2023-05-18T13:01:56.816Z,21.44
2023-05-18T13:04:23.763Z,21.40
2023-05-18T13:06:50.684Z,21.32
2023-05-18T13:09:17.477Z,21.21
2023-05-18T13:11:52.023Z,21.14
2023-05-18T13:14:27.358Z,21.10
2023-05-18T13:16:54.163Z,21.12
2023-05-18T13:19:21.125Z,21.14
2023-05-18T13:21:54.978Z,21.16
2023-05-18T13:24:21.796Z,21.10
2023-05-18T13:26:48.627Z,21.05
2023-05-18T13:29:15.395Z,21.05
2023-05-18T13:31:42.185Z,21.03
2023-05-18T13:34:08.893Z,20.93
2023-05-18T13:36:36.688Z,20.89
2023-05-18T13:39:07.465Z,20.90
2023-05-18T13:41:36.529Z,20.91
2023-05-18T13:44:03.736Z,20.90
2023-05-18T13:46:30.660Z,20.83
2023-05-18T13:48:57.400Z,20.72
2023-05-18T13:51:24.356Z,20.67
2023-05-18T13:53:51.028Z,20.66
2023-05-18T13:56:17.742Z,20.62
2023-05-18T13:58:44.805Z,20.60
2023-05-18T14:01:13.840Z,20.61
2023-05-18T14:03:41.165Z,20.60
2023-05-18T14:06:08.107Z,20.59
2023-05-18T14:08:34.792Z,20.48
2023-05-18T14:11:01.523Z,20.27
2023-05-18T14:13:28.270Z,20.11
2023-05-18T14:15:55.007Z,20.00
2023-05-18T14:18:21.721Z,19.87
2023-05-18T14:20:48.918Z,19.75
2023-05-18T14:23:15.685Z,19.61
2023-05-18T14:25:43.791Z,19.43
2023-05-18T14:28:10.801Z,19.20
2023-05-18T14:30:37.536Z,19.05
2023-05-18T14:33:04.328Z,18.91
2023-05-18T14:35:31.371Z,18.79
2023-05-18T14:37:58.088Z,18.66
2023-05-18T14:40:24.868Z,18.60
2023-05-18T14:42:53.642Z,18.56
2023-05-18T14:45:20.808Z,18.50
2023-05-18T14:47:48.129Z,18.42
2023-05-18T14:50:15.057Z,18.38
2023-05-18T14:52:41.787Z,18.34
2023-05-18T14:55:08.890Z,18.31
2023-05-18T14:57:35.690Z,18.25
2023-05-18T15:00:02.537Z,18.14
2023-05-18T15:02:29.298Z,18.07
2023-05-18T15:04:56.140Z,18.06
2023-05-18T15:07:22.891Z,17.98
2023-05-18T15:09:49.625Z,17.90
2023-05-18T15:12:17.833Z,17.81
2023-05-18T15:14:44.599Z,17.74
2023-05-18T15:17:12.513Z,17.63
2023-05-18T15:19:39.285Z,17.52
2023-05-18T15:22:06.196Z,17.44
2023-05-18T15:24:32.958Z,17.36
2023-05-18T15:26:59.689Z,17.27
2023-05-18T15:29:26.668Z,17.19
2023-05-18T15:31:55.090Z,17.09
2023-05-18T15:34:21.932Z,17.03
2023-05-18T15:36:48.801Z,17.02
2023-05-18T15:39:15.628Z,17.01
2023-05-18T15:41:42.349Z,17.01
2023-05-18T15:44:09.057Z,17.02
2023-05-18T15:46:35.959Z,17.03
2023-05-18T15:49:02.815Z,17.06
2023-05-18T15:51:29.845Z,17.08
2023-05-18T15:53:58.695Z,17.08
2023-05-18T15:56:25.926Z,17.06
2023-05-18T15:58:52.863Z,17.08
2023-05-18T16:01:19.794Z,17.09
2023-05-18T16:03:46.714Z,17.10
2023-05-18T16:06:13.490Z,17.11
2023-05-18T16:08:40.226Z,17.10
2023-05-18T16:11:07.218Z,17.10
2023-05-18T16:13:34.053Z,17.11
2023-05-18T16:16:00.936Z,17.11
2023-05-18T16:18:27.778Z,17.08
2023-05-18T16:20:54.900Z,17.08
2023-05-18T16:23:21.638Z,17.09
2023-05-18T16:25:48.472Z,17.09
2023-05-18T16:28:15.240Z,17.11
2023-05-18T16:30:41.939Z,17.10
2023-05-18T16:33:08.773Z,17.10
2023-05-18T16:35:35.873Z,17.10
2023-05-18T16:38:02.791Z,17.08
2023-05-18T16:40:29.778Z,17.03
2023-05-18T16:42:56.932Z,16.96
2023-05-18T16:45:25.180Z,16.90
2023-05-18T16:47:53.298Z,16.87
2023-05-18T16:50:20.229Z,16.81
2023-05-18T16:52:46.978Z,16.78
2023-05-18T16:55:13.729Z,16.72
2023-05-18T16:57:40.462Z,16.68
2023-05-18T17:00:09.798Z,16.62
2023-05-18T17:02:38.285Z,16.56
2023-05-18T17:05:06.646Z,16.48
2023-05-18T17:07:33.510Z,16.40
2023-05-18T17:10:00.297Z,16.32
2023-05-18T17:12:27.044Z,16.27
2023-05-18T17:14:53.823Z,16.26
2023-05-18T17:17:20.660Z,16.23
2023-05-18T17:19:47.373Z,16.21
2023-05-18T17:22:14.076Z,16.23
2023-05-18T17:24:41.542Z,16.26
2023-05-18T17:27:08.318Z,16.31
2023-05-18T17:29:35.897Z,16.30
2023-05-18T17:32:02.857Z,16.25
2023-05-18T17:34:30.696Z,16.17
2023-05-18T17:36:57.655Z,16.12
2023-05-18T17:39:24.916Z,16.09
2023-05-18T17:41:54.232Z,16.10
2023-05-18T17:44:21.068Z,16.05
2023-05-18T17:46:47.937Z,16.02
2023-05-18T17:49:14.714Z,16.00
2023-05-18T17:51:41.839Z,16.00
2023-05-18T17:54:08.587Z,16.00
2023-05-18T17:56:35.356Z,15.99
2023-05-18T17:59:02.180Z,15.97
2023-05-18T18:01:29.421Z,15.90
2023-05-18T18:03:56.692Z,15.86
2023-05-18T18:06:23.674Z,15.86
2023-05-18T18:08:51.039Z,15.86
2023-05-18T18:11:17.872Z,15.81
2023-05-18T18:13:44.568Z,15.75
2023-05-18T18:16:11.418Z,15.71
2023-05-18T18:18:41.095Z,15.70
2023-05-18T18:21:10.054Z,15.67
2023-05-18T18:23:37.106Z,15.63
2023-05-18T18:26:04.187Z,15.62
2023-05-18T18:28:31.449Z,15.57
2023-05-18T18:30:58.243Z,15.52
2023-05-18T18:33:28.129Z,15.47
2023-05-18T18:35:55.552Z,15.42
2023-05-18T18:38:22.392Z,15.40
2023-05-18T18:40:49.132Z,15.38
2023-05-18T18:43:16.210Z,15.36
2023-05-18T18:45:43.048Z,15.33
2023-05-18T18:48:09.859Z,15.31
2023-05-18T18:50:36.827Z,15.28
2023-05-18T18:53:03.552Z,15.26
2023-05-18T18:55:30.587Z,15.26
2023-05-18T18:57:59.544Z,15.24
2023-05-18T19:00:26.485Z,15.18
2023-05-18T19:02:53.348Z,15.16
2023-05-18T19:05:23.423Z,15.16
2023-05-18T19:07:50.986Z,15.16
2023-05-18T19:10:17.721Z,15.14
2023-05-18T19:12:44.496Z,15.13
2023-05-18T19:15:13.284Z,15.13
2023-05-18T19:17:43.293Z,15.12
2023-05-18T19:20:13.446Z,15.11
2023-05-18T19:22:41.509Z,15.11
2023-05-18T19:25:08.570Z,15.11
2023-05-18T19:27:35.360Z,15.09
2023-05-18T19:30:05.195Z,15.07
2023-05-18T19:32:33.643Z,15.04
2023-05-18T19:35:00.583Z,15.03
2023-05-18T19:37:27.489Z,15.01
2023-05-18T19:39:55.692Z,14.99
2023-05-18T19:42:22.416Z,14.99
2023-05-18T19:44:49.176Z,14.98
2023-05-18T19:47:16.010Z,14.97
2023-05-18T19:49:42.834Z,14.96
2023-05-18T19:52:12.789Z,14.95
2023-05-18T19:54:39.610Z,14.92
2023-05-18T19:57:06.342Z,14.89
2023-05-18T19:59:33.846Z,14.88
2023-05-18T20:02:00.688Z,14.86
2023-05-18T20:04:28.746Z,14.86
2023-05-18T20:06:59.177Z,14.85
2023-05-18T20:09:26.068Z,14.88
2023-05-18T20:11:53.426Z,14.87
2023-05-18T20:14:20.268Z,14.84
2023-05-18T20:16:47.009Z,14.83
2023-05-18T20:19:15.150Z,14.87
2023-05-18T20:21:42.295Z,14.89
2023-05-18T20:24:09.029Z,14.87
2023-05-18T20:26:35.877Z,14.84
2023-05-18T20:29:02.984Z,14.84
2023-05-18T20:31:29.809Z,14.84
2023-05-18T20:33:58.014Z,14.83
2023-05-18T20:36:25.331Z,14.81
2023-05-18T20:38:53.406Z,14.85
2023-05-18T20:41:21.042Z,14.85
2023-05-18T20:43:50.417Z,14.84
2023-05-18T20:46:17.622Z,14.86
2023-05-18T20:48:44.859Z,14.87
2023-05-18T20:51:18.802Z,14.86
2023-05-18T20:53:47.133Z,14.84
2023-05-18T20:56:15.736Z,14.81
2023-05-18T20:58:48.839Z,14.79
2023-05-18T21:01:16.375Z,14.77
2023-05-18T21:03:45.500Z,14.76
2023-05-18T21:06:15.918Z,14.74
2023-05-18T21:08:45.822Z,14.72
2023-05-18T21:11:12.755Z,14.72
2023-05-18T21:13:39.562Z,14.71
2023-05-18T21:16:08.474Z,14.72
2023-05-18T21:18:35.462Z,14.71
2023-05-18T21:21:02.487Z,14.70
2023-05-18T21:23:29.384Z,14.70
2023-05-18T21:25:56.506Z,14.71
2023-05-18T21:28:25.246Z,14.72
2023-05-18T21:30:52.360Z,14.71
2023-05-18T21:33:19.442Z,14.69
2023-05-18T21:35:46.439Z,14.69
2023-05-18T21:38:13.151Z,14.68
2023-05-18T21:40:43.496Z,14.68
2023-05-18T21:43:10.780Z,14.68
2023-05-18T21:45:37.695Z,14.68
2023-05-18T21:48:04.856Z,14.69
2023-05-18T21:50:35.166Z,14.70
2023-05-18T21:53:05.594Z,14.70
2023-05-18T21:55:32.351Z,14.72
2023-05-18T21:57:59.283Z,14.72
2023-05-18T22:00:26.973Z,14.73
2023-05-18T22:02:53.951Z,14.75
2023-05-18T22:05:20.716Z,14.75
2023-05-18T22:07:47.971Z,14.74
2023-05-18T22:10:14.718Z,14.71
2023-05-18T22:12:43.574Z,14.70
2023-05-18T22:15:10.739Z,14.71
2023-05-18T22:17:37.553Z,14.70
2023-05-18T22:20:11.582Z,14.69
2023-05-18T22:22:40.354Z,14.69
2023-05-18T22:25:07.591Z,14.69
2023-05-18T22:27:36.764Z,14.68
2023-05-18T22:30:04.894Z,14.69
2023-05-18T22:32:31.751Z,14.70
2023-05-18T22:35:00.241Z,14.69
2023-05-18T22:37:27.005Z,14.67
2023-05-18T22:39:53.822Z,14.64
2023-05-18T22:42:21.440Z,14.64
2023-05-18T22:44:48.418Z,14.63
2023-05-18T22:47:19.771Z,14.64
2023-05-18T22:49:46.755Z,14.62
2023-05-18T22:52:13.501Z,14.59
2023-05-18T22:54:40.200Z,14.57
2023-05-18T22:57:07.229Z,14.55
2023-05-18T22:59:34.864Z,14.54
2023-05-18T23:02:01.615Z,14.53
2023-05-18T23:04:28.386Z,14.50
2023-05-18T23:06:57.134Z,14.49
2023-05-18T23:09:27.031Z,14.47
2023-05-18T23:11:56.778Z,14.45
2023-05-18T23:14:24.597Z,14.45
2023-05-18T23:16:53.600Z,14.44
2023-05-18T23:19:20.606Z,14.43
2023-05-18T23:21:47.459Z,14.42
2023-05-18T23:24:14.514Z,14.42
2023-05-18T23:26:42.242Z,14.39
2023-05-18T23:29:09.069Z,14.41
2023-05-18T23:31:35.976Z,14.44
2023-05-18T23:34:02.959Z,14.48
2023-05-18T23:36:35.008Z,14.54
2023-05-18T23:39:02.451Z,14.56
2023-05-18T23:41:29.861Z,14.58
2023-05-18T23:43:56.803Z,14.59
2023-05-18T23:46:23.677Z,14.59
2023-05-18T23:48:52.565Z,14.58
2023-05-18T23:51:21.398Z,14.59
2023-05-18T23:53:48.710Z,14.60
2023-05-18T23:56:15.708Z,14.61
2023-05-18T23:58:43.072Z,14.63
